Saturn, Texas
Current Conditions -  °F | °C
As of 1:48 PM on Saturday 25 Oct 2014 (Local Time) from KHYI Reporting Station
Clear Clear  
Wind Chill: 86°   Ceiling: Unl
Heat Index: 86°   Visibility: 10mi
Dew Point: 57°   Wind: 7mph
Humidity: 37%   Direction: 220°SW
Pressure: 30.14"   Gusts: NA
Location:  29.6608°N, 97.4854°W
Report Text: KHYI 251848Z 22006KT 10SM SKC 30/14 A3014
Loading
Personal Weather Stations






























Interactive Weather Map New forecast layout! Learn more

10-Day Weather Forecast

Advertisements
Track Severe Weather on mobile